sensor_id;sensor_type;location;lat;lon;timestamp;temperature;humidity
15700;DHT22;7950;42.744;23.174;2023-06-19T00:00:12;16.00;99.90
15700;DHT22;7950;42.744;23.174;2023-06-19T00:02:43;16.00;99.90
15700;DHT22;7950;42.744;23.174;2023-06-19T00:05:13;16.00;99.90
15700;DHT22;7950;42.744;23.174;2023-06-19T00:07:41;15.90;99.90
15700;DHT22;7950;42.744;23.174;2023-06-19T00:10:10;15.90;99.90
15700;DHT22;7950;42.744;23.174;2023-06-19T00:12:38;15.90;99.90
15700;DHT22;7950;42.744;23.174;2023-06-19T00:15:08;16.00;99.90
15700;DHT22;7950;42.744;23.174;2023-06-19T00:17:38;15.90;99.90
15700;DHT22;7950;42.744;23.174;2023-06-19T00:20:07;15.90;99.90
15700;DHT22;7950;42.744;23.174;2023-06-19T00:22:38;16.00;99.90
15700;DHT22;7950;42.744;23.174;2023-06-19T00:25:07;16.00;99.90
15700;DHT22;7950;42.744;23.174;2023-06-19T00:27:36;16.00;99.90
15700;DHT22;7950;42.744;23.174;2023-06-19T00:30:06;16.00;99.90
15700;DHT22;7950;42.744;23.174;2023-06-19T00:32:35;16.00;99.90
15700;DHT22;7950;42.744;23.174;2023-06-19T00:35:14;16.10;99.90
15700;DHT22;7950;42.744;23.174;2023-06-19T00:37:46;16.10;99.90
15700;DHT22;7950;42.744;23.174;2023-06-19T00:40:24;16.10;99.90
15700;DHT22;7950;42.744;23.174;2023-06-19T00:42:56;16.10;99.90
15700;DHT22;7950;42.744;23.174;2023-06-19T00:45:25;16.10;99.90
15700;DHT22;7950;42.744;23.174;2023-06-19T00:47:56;16.10;99.90
15700;DHT22;7950;42.744;23.174;2023-06-19T00:50:28;16.10;99.90
15700;DHT22;7950;42.744;23.174;2023-06-19T00:52:59;16.20;99.90
15700;DHT22;7950;42.744;23.174;2023-06-19T00:55:31;16.30;99.90
15700;DHT22;7950;42.744;23.174;2023-06-19T00:58:01;16.30;99.90
15700;DHT22;7950;42.744;23.174;2023-06-19T01:00:30;16.30;99.90
15700;DHT22;7950;42.744;23.174;2023-06-19T01:02:59;16.20;99.90
15700;DHT22;7950;42.744;23.174;2023-06-19T01:05:28;16.20;99.90
15700;DHT22;7950;42.744;23.174;2023-06-19T01:08:00;16.20;99.90
15700;DHT22;7950;42.744;23.174;2023-06-19T01:10:36;16.20;99.90
15700;DHT22;7950;42.744;23.174;2023-06-19T01:13:12;16.20;99.90
15700;DHT22;7950;42.744;23.174;2023-06-19T01:15:44;16.30;99.90
15700;DHT22;7950;42.744;23.174;2023-06-19T01:18:15;16.30;99.90
15700;DHT22;7950;42.744;23.174;2023-06-19T01:20:44;16.30;99.90
15700;DHT22;7950;42.744;23.174;2023-06-19T01:23:14;16.30;99.90
15700;DHT22;7950;42.744;23.174;2023-06-19T01:25:43;16.30;99.90
15700;DHT22;7950;42.744;23.174;2023-06-19T01:28:13;16.20;99.90
15700;DHT22;7950;42.744;23.174;2023-06-19T01:30:42;16.20;99.90
15700;DHT22;7950;42.744;23.174;2023-06-19T01:33:15;16.20;99.90
15700;DHT22;7950;42.744;23.174;2023-06-19T01:35:48;16.20;99.90
15700;DHT22;7950;42.744;23.174;2023-06-19T01:38:21;16.20;99.90
15700;DHT22;7950;42.744;23.174;2023-06-19T01:40:53;16.30;99.90
15700;DHT22;7950;42.744;23.174;2023-06-19T01:43:24;16.20;99.90
15700;DHT22;7950;42.744;23.174;2023-06-19T01:45:54;16.20;99.90
15700;DHT22;7950;42.744;23.174;2023-06-19T01:48:23;16.10;99.90
15700;DHT22;7950;42.744;23.174;2023-06-19T01:50:52;16.20;99.90
15700;DHT22;7950;42.744;23.174;2023-06-19T01:53:23;16.20;99.90
15700;DHT22;7950;42.744;23.174;2023-06-19T01:55:51;16.10;99.90
15700;DHT22;7950;42.744;23.174;2023-06-19T01:58:20;16.10;99.90
15700;DHT22;7950;42.744;23.174;2023-06-19T02:00:48;16.10;99.90
15700;DHT22;7950;42.744;23.174;2023-06-19T02:03:17;16.10;99.90
15700;DHT22;7950;42.744;23.174;2023-06-19T02:05:46;16.00;99.90
15700;DHT22;7950;42.744;23.174;2023-06-19T02:08:14;16.00;99.90
15700;DHT22;7950;42.744;23.174;2023-06-19T02:10:44;15.90;99.90
15700;DHT22;7950;42.744;23.174;2023-06-19T02:13:13;15.90;99.90
15700;DHT22;7950;42.744;23.174;2023-06-19T02:15:42;15.90;99.90
15700;DHT22;7950;42.744;23.174;2023-06-19T02:18:10;15.80;99.90
15700;DHT22;7950;42.744;23.174;2023-06-19T02:20:39;15.70;99.90
15700;DHT22;7950;42.744;23.174;2023-06-19T02:23:07;15.70;99.90
15700;DHT22;7950;42.744;23.174;2023-06-19T02:25:36;15.70;99.90
15700;DHT22;7950;42.744;23.174;2023-06-19T02:28:06;15.60;99.90
15700;DHT22;7950;42.744;23.174;2023-06-19T02:30:34;15.60;99.90
15700;DHT22;7950;42.744;23.174;2023-06-19T02:33:03;15.50;99.90
15700;DHT22;7950;42.744;23.174;2023-06-19T02:35:31;15.50;99.90
15700;DHT22;7950;42.744;23.174;2023-06-19T02:38:00;15.40;99.90
15700;DHT22;7950;42.744;23.174;2023-06-19T02:40:31;15.30;99.90
15700;DHT22;7950;42.744;23.174;2023-06-19T02:43:00;15.20;99.90
15700;DHT22;7950;42.744;23.174;2023-06-19T02:45:30;15.20;99.90
15700;DHT22;7950;42.744;23.174;2023-06-19T02:47:58;15.10;99.90
15700;DHT22;7950;42.744;23.174;2023-06-19T02:50:27;15.00;99.90
15700;DHT22;7950;42.744;23.174;2023-06-19T02:52:55;15.00;99.90
15700;DHT22;7950;42.744;23.174;2023-06-19T02:55:24;14.90;99.90
15700;DHT22;7950;42.744;23.174;2023-06-19T02:57:52;14.80;99.90
15700;DHT22;7950;42.744;23.174;2023-06-19T03:00:21;14.80;99.90
15700;DHT22;7950;42.744;23.174;2023-06-19T03:02:52;14.70;99.90
15700;DHT22;7950;42.744;23.174;2023-06-19T03:05:21;14.70;99.90
15700;DHT22;7950;42.744;23.174;2023-06-19T03:07:49;14.60;99.90
15700;DHT22;7950;42.744;23.174;2023-06-19T03:10:18;14.60;99.90
15700;DHT22;7950;42.744;23.174;2023-06-19T03:12:47;14.60;99.90
15700;DHT22;7950;42.744;23.174;2023-06-19T03:15:16;14.50;99.90
15700;DHT22;7950;42.744;23.174;2023-06-19T03:17:44;14.50;99.90
15700;DHT22;7950;42.744;23.174;2023-06-19T03:20:14;14.50;99.90
15700;DHT22;7950;42.744;23.174;2023-06-19T03:22:43;14.50;99.90
15700;DHT22;7950;42.744;23.174;2023-06-19T03:25:12;14.50;99.90
15700;DHT22;7950;42.744;23.174;2023-06-19T03:27:41;14.50;99.90
15700;DHT22;7950;42.744;23.174;2023-06-19T03:30:10;14.60;99.90
15700;DHT22;7950;42.744;23.174;2023-06-19T03:32:39;14.60;99.90
15700;DHT22;7950;42.744;23.174;2023-06-19T03:35:08;14.60;99.90
15700;DHT22;7950;42.744;23.174;2023-06-19T03:37:39;14.60;99.90
15700;DHT22;7950;42.744;23.174;2023-06-19T03:40:08;14.60;99.90
15700;DHT22;7950;42.744;23.174;2023-06-19T03:42:40;14.70;99.90
15700;DHT22;7950;42.744;23.174;2023-06-19T03:45:09;14.70;99.90
15700;DHT22;7950;42.744;23.174;2023-06-19T03:47:38;14.80;99.90
15700;DHT22;7950;42.744;23.174;2023-06-19T03:50:08;14.80;99.90
15700;DHT22;7950;42.744;23.174;2023-06-19T03:52:48;14.90;99.90
15700;DHT22;7950;42.744;23.174;2023-06-19T03:55:17;14.90;99.90
15700;DHT22;7950;42.744;23.174;2023-06-19T03:57:46;15.00;99.90
15700;DHT22;7950;42.744;23.174;2023-06-19T04:00:15;15.10;99.90
15700;DHT22;7950;42.744;23.174;2023-06-19T04:02:45;15.20;99.90
15700;DHT22;7950;42.744;23.174;2023-06-19T04:05:14;15.30;99.90
15700;DHT22;7950;42.744;23.174;2023-06-19T04:07:43;15.50;99.90
15700;DHT22;7950;42.744;23.174;2023-06-19T04:10:13;15.60;99.90
15700;DHT22;7950;42.744;23.174;2023-06-19T04:12:42;15.70;99.90
15700;DHT22;7950;42.744;23.174;2023-06-19T04:15:12;15.80;99.90
15700;DHT22;7950;42.744;23.174;2023-06-19T04:17:40;15.90;99.90
15700;DHT22;7950;42.744;23.174;2023-06-19T04:20:10;16.10;99.90
15700;DHT22;7950;42.744;23.174;2023-06-19T04:22:39;16.20;99.90
15700;DHT22;7950;42.744;23.174;2023-06-19T04:25:09;16.30;99.90
15700;DHT22;7950;42.744;23.174;2023-06-19T04:27:40;16.50;99.90
15700;DHT22;7950;42.744;23.174;2023-06-19T04:30:09;16.60;99.90
15700;DHT22;7950;42.744;23.174;2023-06-19T04:32:38;16.70;99.90
15700;DHT22;7950;42.744;23.174;2023-06-19T04:35:08;16.80;99.90
15700;DHT22;7950;42.744;23.174;2023-06-19T04:37:37;17.00;99.90
15700;DHT22;7950;42.744;23.174;2023-06-19T04:40:07;17.10;99.90
15700;DHT22;7950;42.744;23.174;2023-06-19T04:42:36;17.20;99.90
15700;DHT22;7950;42.744;23.174;2023-06-19T04:45:07;17.30;99.90
15700;DHT22;7950;42.744;23.174;2023-06-19T04:47:37;17.40;99.90
15700;DHT22;7950;42.744;23.174;2023-06-19T04:50:19;17.60;99.90
15700;DHT22;7950;42.744;23.174;2023-06-19T04:52:49;17.80;99.90
15700;DHT22;7950;42.744;23.174;2023-06-19T04:55:19;17.80;99.90
15700;DHT22;7950;42.744;23.174;2023-06-19T04:57:47;18.00;99.90
15700;DHT22;7950;42.744;23.174;2023-06-19T05:00:18;18.10;99.90
15700;DHT22;7950;42.744;23.174;2023-06-19T05:02:50;18.20;99.90
15700;DHT22;7950;42.744;23.174;2023-06-19T05:05:19;18.30;99.90
15700;DHT22;7950;42.744;23.174;2023-06-19T05:07:50;18.40;99.90
15700;DHT22;7950;42.744;23.174;2023-06-19T05:10:19;18.50;99.90
15700;DHT22;7950;42.744;23.174;2023-06-19T05:12:48;18.60;99.90
15700;DHT22;7950;42.744;23.174;2023-06-19T05:15:18;18.70;99.90
15700;DHT22;7950;42.744;23.174;2023-06-19T05:17:47;18.80;99.90
15700;DHT22;7950;42.744;23.174;2023-06-19T05:20:16;18.90;99.90
15700;DHT22;7950;42.744;23.174;2023-06-19T05:22:44;19.10;99.90
15700;DHT22;7950;42.744;23.174;2023-06-19T05:25:13;19.20;99.90
15700;DHT22;7950;42.744;23.174;2023-06-19T05:27:41;19.30;99.90
15700;DHT22;7950;42.744;23.174;2023-06-19T05:30:12;19.40;99.90
15700;DHT22;7950;42.744;23.174;2023-06-19T05:32:42;19.50;99.90
15700;DHT22;7950;42.744;23.174;2023-06-19T05:35:11;19.60;99.90
15700;DHT22;7950;42.744;23.174;2023-06-19T05:37:42;19.60;99.90
15700;DHT22;7950;42.744;23.174;2023-06-19T05:40:11;19.80;99.90
15700;DHT22;7950;42.744;23.174;2023-06-19T05:42:40;19.90;99.90
15700;DHT22;7950;42.744;23.174;2023-06-19T05:45:09;20.00;99.90
15700;DHT22;7950;42.744;23.174;2023-06-19T05:47:39;20.10;99.90
15700;DHT22;7950;42.744;23.174;2023-06-19T05:50:09;20.10;99.90
15700;DHT22;7950;42.744;23.174;2023-06-19T05:52:38;20.20;99.90
15700;DHT22;7950;42.744;23.174;2023-06-19T05:55:10;20.20;99.90
15700;DHT22;7950;42.744;23.174;2023-06-19T05:57:39;20.30;99.90
15700;DHT22;7950;42.744;23.174;2023-06-19T06:00:09;20.30;99.90
15700;DHT22;7950;42.744;23.174;2023-06-19T06:02:41;20.30;99.90
15700;DHT22;7950;42.744;23.174;2023-06-19T06:05:11;20.40;99.90
15700;DHT22;7950;42.744;23.174;2023-06-19T06:07:39;20.40;99.90
15700;DHT22;7950;42.744;23.174;2023-06-19T06:10:09;20.40;99.90
15700;DHT22;7950;42.744;23.174;2023-06-19T06:12:38;20.40;99.90
15700;DHT22;7950;42.744;23.174;2023-06-19T06:15:07;20.50;99.90
15700;DHT22;7950;42.744;23.174;2023-06-19T06:17:36;20.60;99.90
15700;DHT22;7950;42.744;23.174;2023-06-19T06:20:06;20.70;99.90
15700;DHT22;7950;42.744;23.174;2023-06-19T06:22:41;20.70;99.90
15700;DHT22;7950;42.744;23.174;2023-06-19T06:25:10;20.80;99.90
15700;DHT22;7950;42.744;23.174;2023-06-19T06:27:40;20.90;99.90
15700;DHT22;7950;42.744;23.174;2023-06-19T06:30:10;20.90;99.90
15700;DHT22;7950;42.744;23.174;2023-06-19T06:32:40;21.00;99.90
15700;DHT22;7950;42.744;23.174;2023-06-19T06:35:09;21.10;99.90
15700;DHT22;7950;42.744;23.174;2023-06-19T06:37:37;21.20;99.90
15700;DHT22;7950;42.744;23.174;2023-06-19T06:40:08;21.30;99.90
15700;DHT22;7950;42.744;23.174;2023-06-19T06:42:38;21.40;99.90
15700;DHT22;7950;42.744;23.174;2023-06-19T06:45:07;21.40;99.90
15700;DHT22;7950;42.744;23.174;2023-06-19T06:47:36;21.50;99.90
15700;DHT22;7950;42.744;23.174;2023-06-19T06:50:08;21.50;99.90
15700;DHT22;7950;42.744;23.174;2023-06-19T06:52:37;21.50;99.90
15700;DHT22;7950;42.744;23.174;2023-06-19T06:55:08;21.70;99.90
15700;DHT22;7950;42.744;23.174;2023-06-19T06:57:37;21.80;99.90
15700;DHT22;7950;42.744;23.174;2023-06-19T07:00:06;21.90;99.90
15700;DHT22;7950;42.744;23.174;2023-06-19T07:02:37;22.00;99.90
15700;DHT22;7950;42.744;23.174;2023-06-19T07:05:09;22.20;99.90
15700;DHT22;7950;42.744;23.174;2023-06-19T07:07:38;22.30;99.90
15700;DHT22;7950;42.744;23.174;2023-06-19T07:10:09;22.40;99.90
15700;DHT22;7950;42.744;23.174;2023-06-19T07:12:45;22.40;99.90
15700;DHT22;7950;42.744;23.174;2023-06-19T07:15:14;22.40;99.90
15700;DHT22;7950;42.744;23.174;2023-06-19T07:17:43;22.40;99.90
15700;DHT22;7950;42.744;23.174;2023-06-19T07:20:12;22.40;99.90
15700;DHT22;7950;42.744;23.174;2023-06-19T07:22:42;22.50;99.90
15700;DHT22;7950;42.744;23.174;2023-06-19T07:25:13;22.60;99.90
15700;DHT22;7950;42.744;23.174;2023-06-19T07:27:42;22.80;99.90
15700;DHT22;7950;42.744;23.174;2023-06-19T07:30:11;22.80;99.90
15700;DHT22;7950;42.744;23.174;2023-06-19T07:32:43;22.80;99.90
15700;DHT22;7950;42.744;23.174;2023-06-19T07:35:11;22.80;99.90
15700;DHT22;7950;42.744;23.174;2023-06-19T07:37:40;22.80;99.90
15700;DHT22;7950;42.744;23.174;2023-06-19T07:40:11;22.90;99.90
15700;DHT22;7950;42.744;23.174;2023-06-19T07:42:40;23.00;99.90
15700;DHT22;7950;42.744;23.174;2023-06-19T07:45:12;23.00;99.90
15700;DHT22;7950;42.744;23.174;2023-06-19T07:47:40;23.10;99.90
15700;DHT22;7950;42.744;23.174;2023-06-19T07:50:09;23.10;99.90
15700;DHT22;7950;42.744;23.174;2023-06-19T07:52:38;23.20;99.90
15700;DHT22;7950;42.744;23.174;2023-06-19T07:55:07;23.20;99.90
15700;DHT22;7950;42.744;23.174;2023-06-19T07:57:38;23.20;99.90
15700;DHT22;7950;42.744;23.174;2023-06-19T08:00:07;23.20;99.60
15700;DHT22;7950;42.744;23.174;2023-06-19T08:02:38;23.20;99.40
15700;DHT22;7950;42.744;23.174;2023-06-19T08:05:09;23.20;99.90
15700;DHT22;7950;42.744;23.174;2023-06-19T08:07:38;23.10;99.90
15700;DHT22;7950;42.744;23.174;2023-06-19T08:10:08;23.20;96.80
15700;DHT22;7950;42.744;23.174;2023-06-19T08:12:43;23.20;98.20
15700;DHT22;7950;42.744;23.174;2023-06-19T08:15:12;23.30;99.50
15700;DHT22;7950;42.744;23.174;2023-06-19T08:17:41;23.30;98.80
15700;DHT22;7950;42.744;23.174;2023-06-19T08:20:11;23.40;96.40
15700;DHT22;7950;42.744;23.174;2023-06-19T08:22:40;23.50;95.40
15700;DHT22;7950;42.744;23.174;2023-06-19T08:25:09;23.70;96.10
15700;DHT22;7950;42.744;23.174;2023-06-19T08:27:37;23.90;93.00
15700;DHT22;7950;42.744;23.174;2023-06-19T08:30:08;24.00;94.60
15700;DHT22;7950;42.744;23.174;2023-06-19T08:32:37;24.00;91.00
15700;DHT22;7950;42.744;23.174;2023-06-19T08:35:06;24.00;92.60
15700;DHT22;7950;42.744;23.174;2023-06-19T08:37:34;24.10;95.40
15700;DHT22;7950;42.744;23.174;2023-06-19T08:40:04;24.10;93.60
15700;DHT22;7950;42.744;23.174;2023-06-19T08:42:36;24.20;91.90
15700;DHT22;7950;42.744;23.174;2023-06-19T08:45:08;24.30;87.50
15700;DHT22;7950;42.744;23.174;2023-06-19T08:47:37;24.30;90.60
15700;DHT22;7950;42.744;23.174;2023-06-19T08:50:06;24.40;87.90
15700;DHT22;7950;42.744;23.174;2023-06-19T08:52:36;24.30;84.90
15700;DHT22;7950;42.744;23.174;2023-06-19T08:55:05;24.40;89.90
15700;DHT22;7950;42.744;23.174;2023-06-19T08:57:35;24.40;90.90
15700;DHT22;7950;42.744;23.174;2023-06-19T09:00:08;24.50;86.20
15700;DHT22;7950;42.744;23.174;2023-06-19T09:02:40;24.60;87.00
15700;DHT22;7950;42.744;23.174;2023-06-19T09:05:15;24.80;91.70
15700;DHT22;7950;42.744;23.174;2023-06-19T09:07:54;25.00;84.20
15700;DHT22;7950;42.744;23.174;2023-06-19T09:10:24;25.10;88.50
15700;DHT22;7950;42.744;23.174;2023-06-19T09:12:57;25.10;84.90
15700;DHT22;7950;42.744;23.174;2023-06-19T09:15:30;25.00;81.20
15700;DHT22;7950;42.744;23.174;2023-06-19T09:18:03;24.90;83.80
15700;DHT22;7950;42.744;23.174;2023-06-19T09:20:34;25.00;85.70
15700;DHT22;7950;42.744;23.174;2023-06-19T09:23:05;25.00;84.00
15700;DHT22;7950;42.744;23.174;2023-06-19T09:25:44;25.00;84.80
15700;DHT22;7950;42.744;23.174;2023-06-19T09:28:18;25.00;83.30
15700;DHT22;7950;42.744;23.174;2023-06-19T09:30:56;25.10;88.50
15700;DHT22;7950;42.744;23.174;2023-06-19T09:33:28;25.10;83.40
15700;DHT22;7950;42.744;23.174;2023-06-19T09:36:00;25.20;84.30
15700;DHT22;7950;42.744;23.174;2023-06-19T09:38:31;25.20;82.60
15700;DHT22;7950;42.744;23.174;2023-06-19T09:41:03;25.10;82.10
15700;DHT22;7950;42.744;23.174;2023-06-19T09:43:36;25.10;80.70
15700;DHT22;7950;42.744;23.174;2023-06-19T09:46:09;25.20;83.90
15700;DHT22;7950;42.744;23.174;2023-06-19T09:48:43;25.20;82.40
15700;DHT22;7950;42.744;23.174;2023-06-19T09:51:18;25.30;84.70
15700;DHT22;7950;42.744;23.174;2023-06-19T09:53:49;25.30;82.80
15700;DHT22;7950;42.744;23.174;2023-06-19T09:56:18;25.50;81.50
15700;DHT22;7950;42.744;23.174;2023-06-19T09:58:52;25.50;79.50
15700;DHT22;7950;42.744;23.174;2023-06-19T10:01:27;25.70;80.20
15700;DHT22;7950;42.744;23.174;2023-06-19T10:04:04;25.80;76.40
15700;DHT22;7950;42.744;23.174;2023-06-19T10:06:43;26.00;76.20
15700;DHT22;7950;42.744;23.174;2023-06-19T10:09:15;26.20;78.00
15700;DHT22;7950;42.744;23.174;2023-06-19T10:11:50;26.20;78.50
15700;DHT22;7950;42.744;23.174;2023-06-19T10:14:19;26.20;73.40
15700;DHT22;7950;42.744;23.174;2023-06-19T10:16:50;26.30;74.00
15700;DHT22;7950;42.744;23.174;2023-06-19T10:19:21;26.30;79.20
15700;DHT22;7950;42.744;23.174;2023-06-19T10:21:52;26.20;76.80
15700;DHT22;7950;42.744;23.174;2023-06-19T10:24:23;26.10;75.20
15700;DHT22;7950;42.744;23.174;2023-06-19T10:26:58;26.00;77.90
15700;DHT22;7950;42.744;23.174;2023-06-19T10:29:38;26.10;82.50
15700;DHT22;7950;42.744;23.174;2023-06-19T10:32:17;26.30;79.70
15700;DHT22;7950;42.744;23.174;2023-06-19T10:34:46;26.50;83.80
15700;DHT22;7950;42.744;23.174;2023-06-19T10:37:16;26.60;82.20
15700;DHT22;7950;42.744;23.174;2023-06-19T10:39:45;26.80;80.00
15700;DHT22;7950;42.744;23.174;2023-06-19T10:42:13;26.70;79.20
15700;DHT22;7950;42.744;23.174;2023-06-19T10:44:42;26.70;80.10
15700;DHT22;7950;42.744;23.174;2023-06-19T10:47:11;26.80;84.40
15700;DHT22;7950;42.744;23.174;2023-06-19T10:49:41;26.70;78.40
15700;DHT22;7950;42.744;23.174;2023-06-19T10:52:10;26.70;78.80
15700;DHT22;7950;42.744;23.174;2023-06-19T10:54:39;26.60;80.60
15700;DHT22;7950;42.744;23.174;2023-06-19T10:57:07;26.50;82.90
15700;DHT22;7950;42.744;23.174;2023-06-19T10:59:36;26.40;82.80
15700;DHT22;7950;42.744;23.174;2023-06-19T11:02:06;26.40;77.90
15700;DHT22;7950;42.744;23.174;2023-06-19T11:04:38;26.40;79.20
15700;DHT22;7950;42.744;23.174;2023-06-19T11:07:08;26.50;83.50
15700;DHT22;7950;42.744;23.174;2023-06-19T11:09:37;26.60;77.30
15700;DHT22;7950;42.744;23.174;2023-06-19T11:12:09;26.50;78.90
15700;DHT22;7950;42.744;23.174;2023-06-19T11:14:38;26.60;74.10
15700;DHT22;7950;42.744;23.174;2023-06-19T11:17:08;26.60;76.20
15700;DHT22;7950;42.744;23.174;2023-06-19T11:19:38;26.60;74.20
15700;DHT22;7950;42.744;23.174;2023-06-19T11:22:10;26.70;76.40
15700;DHT22;7950;42.744;23.174;2023-06-19T11:24:43;26.80;78.50
15700;DHT22;7950;42.744;23.174;2023-06-19T11:27:21;27.00;77.50
15700;DHT22;7950;42.744;23.174;2023-06-19T11:29:56;26.90;74.20
15700;DHT22;7950;42.744;23.174;2023-06-19T11:32:31;26.80;74.90
15700;DHT22;7950;42.744;23.174;2023-06-19T11:35:05;26.80;79.70
15700;DHT22;7950;42.744;23.174;2023-06-19T11:37:39;26.90;80.10
15700;DHT22;7950;42.744;23.174;2023-06-19T11:40:09;27.00;76.60
15700;DHT22;7950;42.744;23.174;2023-06-19T11:42:51;27.10;81.10
15700;DHT22;7950;42.744;23.174;2023-06-19T11:45:21;27.10;77.80
15700;DHT22;7950;42.744;23.174;2023-06-19T11:47:50;27.20;76.90
15700;DHT22;7950;42.744;23.174;2023-06-19T11:50:19;27.20;76.50
15700;DHT22;7950;42.744;23.174;2023-06-19T11:52:52;27.20;78.20
15700;DHT22;7950;42.744;23.174;2023-06-19T11:55:21;27.10;75.80
15700;DHT22;7950;42.744;23.174;2023-06-19T11:57:49;27.10;76.20
15700;DHT22;7950;42.744;23.174;2023-06-19T12:00:18;27.00;79.30
15700;DHT22;7950;42.744;23.174;2023-06-19T12:02:47;27.10;84.50
15700;DHT22;7950;42.744;23.174;2023-06-19T12:05:16;27.30;76.20
15700;DHT22;7950;42.744;23.174;2023-06-19T12:07:45;27.30;76.30
15700;DHT22;7950;42.744;23.174;2023-06-19T12:10:15;27.20;77.00
15700;DHT22;7950;42.744;23.174;2023-06-19T12:12:43;27.20;77.60
15700;DHT22;7950;42.744;23.174;2023-06-19T12:15:12;27.10;74.90
15700;DHT22;7950;42.744;23.174;2023-06-19T12:17:41;27.20;76.30
15700;DHT22;7950;42.744;23.174;2023-06-19T12:20:11;27.40;79.90
15700;DHT22;7950;42.744;23.174;2023-06-19T12:22:41;27.30;74.30
15700;DHT22;7950;42.744;23.174;2023-06-19T12:25:10;27.30;77.70
15700;DHT22;7950;42.744;23.174;2023-06-19T12:27:40;27.30;75.00
15700;DHT22;7950;42.744;23.174;2023-06-19T12:30:09;27.30;74.70
15700;DHT22;7950;42.744;23.174;2023-06-19T12:32:39;27.20;75.70
15700;DHT22;7950;42.744;23.174;2023-06-19T12:35:08;27.30;74.00
15700;DHT22;7950;42.744;23.174;2023-06-19T12:37:37;27.10;71.10
15700;DHT22;7950;42.744;23.174;2023-06-19T12:40:06;26.90;72.90
15700;DHT22;7950;42.744;23.174;2023-06-19T12:42:37;26.90;74.40
15700;DHT22;7950;42.744;23.174;2023-06-19T12:45:08;26.90;72.00
15700;DHT22;7950;42.744;23.174;2023-06-19T12:47:38;27.00;74.30
15700;DHT22;7950;42.744;23.174;2023-06-19T12:50:07;27.10;73.20
15700;DHT22;7950;42.744;23.174;2023-06-19T12:52:38;27.10;70.60
15700;DHT22;7950;42.744;23.174;2023-06-19T12:55:07;27.00;70.20
15700;DHT22;7950;42.744;23.174;2023-06-19T12:57:36;27.20;72.70
15700;DHT22;7950;42.744;23.174;2023-06-19T13:00:11;27.20;74.50
15700;DHT22;7950;42.744;23.174;2023-06-19T13:02:40;27.10;69.00
15700;DHT22;7950;42.744;23.174;2023-06-19T13:05:10;27.20;70.10
15700;DHT22;7950;42.744;23.174;2023-06-19T13:07:39;27.10;67.90
15700;DHT22;7950;42.744;23.174;2023-06-19T13:10:08;26.90;68.00
15700;DHT22;7950;42.744;23.174;2023-06-19T13:12:37;26.70;69.10
15700;DHT22;7950;42.744;23.174;2023-06-19T13:15:08;26.70;71.50
15700;DHT22;7950;42.744;23.174;2023-06-19T13:17:38;26.70;70.70
15700;DHT22;7950;42.744;23.174;2023-06-19T13:20:07;26.80;69.70
15700;DHT22;7950;42.744;23.174;2023-06-19T13:22:36;26.80;69.20
15700;DHT22;7950;42.744;23.174;2023-06-19T13:25:05;27.00;69.00
15700;DHT22;7950;42.744;23.174;2023-06-19T13:27:35;26.90;67.60
15700;DHT22;7950;42.744;23.174;2023-06-19T13:30:04;26.70;68.40
15700;DHT22;7950;42.744;23.174;2023-06-19T13:32:35;26.70;69.10
15700;DHT22;7950;42.744;23.174;2023-06-19T13:35:05;26.70;70.10
15700;DHT22;7950;42.744;23.174;2023-06-19T13:37:36;26.80;71.80
15700;DHT22;7950;42.744;23.174;2023-06-19T13:40:07;26.80;71.60
15700;DHT22;7950;42.744;23.174;2023-06-19T13:42:37;26.80;68.40
15700;DHT22;7950;42.744;23.174;2023-06-19T13:45:08;26.80;68.90
15700;DHT22;7950;42.744;23.174;2023-06-19T13:47:37;26.80;69.90
15700;DHT22;7950;42.744;23.174;2023-06-19T13:50:06;26.80;72.20
15700;DHT22;7950;42.744;23.174;2023-06-19T13:52:36;26.90;70.00
15700;DHT22;7950;42.744;23.174;2023-06-19T13:55:05;26.70;67.80
15700;DHT22;7950;42.744;23.174;2023-06-19T13:57:34;26.60;68.20
15700;DHT22;7950;42.744;23.174;2023-06-19T14:00:07;26.60;69.20
15700;DHT22;7950;42.744;23.174;2023-06-19T14:02:38;26.70;71.10
15700;DHT22;7950;42.744;23.174;2023-06-19T14:05:08;26.70;70.10
15700;DHT22;7950;42.744;23.174;2023-06-19T14:07:38;26.60;68.70
15700;DHT22;7950;42.744;23.174;2023-06-19T14:10:09;26.60;68.10
15700;DHT22;7950;42.744;23.174;2023-06-19T14:12:37;26.50;68.70
15700;DHT22;7950;42.744;23.174;2023-06-19T14:15:08;26.50;70.00
15700;DHT22;7950;42.744;23.174;2023-06-19T14:17:37;26.40;69.30
15700;DHT22;7950;42.744;23.174;2023-06-19T14:20:11;26.50;70.40
15700;DHT22;7950;42.744;23.174;2023-06-19T14:22:40;26.50;70.70
15700;DHT22;7950;42.744;23.174;2023-06-19T14:25:09;26.60;71.80
15700;DHT22;7950;42.744;23.174;2023-06-19T14:27:37;26.60;71.00
15700;DHT22;7950;42.744;23.174;2023-06-19T14:30:08;26.50;70.50
15700;DHT22;7950;42.744;23.174;2023-06-19T14:32:37;26.40;70.00
15700;DHT22;7950;42.744;23.174;2023-06-19T14:35:06;26.50;73.70
15700;DHT22;7950;42.744;23.174;2023-06-19T14:37:35;26.60;75.10
15700;DHT22;7950;42.744;23.174;2023-06-19T14:40:05;26.70;74.50
15700;DHT22;7950;42.744;23.174;2023-06-19T14:42:34;26.60;73.50
15700;DHT22;7950;42.744;23.174;2023-06-19T14:45:04;26.60;73.20
15700;DHT22;7950;42.744;23.174;2023-06-19T14:47:34;26.50;75.10
15700;DHT22;7950;42.744;23.174;2023-06-19T14:50:04;26.50;74.60
15700;DHT22;7950;42.744;23.174;2023-06-19T14:52:33;26.50;75.80
15700;DHT22;7950;42.744;23.174;2023-06-19T14:55:02;26.50;76.40
15700;DHT22;7950;42.744;23.174;2023-06-19T14:57:30;26.40;76.10
15700;DHT22;7950;42.744;23.174;2023-06-19T14:59:59;26.40;75.60
15700;DHT22;7950;42.744;23.174;2023-06-19T15:02:27;26.30;75.50
15700;DHT22;7950;42.744;23.174;2023-06-19T15:04:58;26.30;76.20
15700;DHT22;7950;42.744;23.174;2023-06-19T15:07:33;26.20;76.40
15700;DHT22;7950;42.744;23.174;2023-06-19T15:10:02;26.20;77.70
15700;DHT22;7950;42.744;23.174;2023-06-19T15:12:31;26.20;79.40
15700;DHT22;7950;42.744;23.174;2023-06-19T15:15:03;26.10;79.10
15700;DHT22;7950;42.744;23.174;2023-06-19T15:17:32;26.20;78.50
15700;DHT22;7950;42.744;23.174;2023-06-19T15:20:04;26.20;80.40
15700;DHT22;7950;42.744;23.174;2023-06-19T15:22:35;26.10;79.50
15700;DHT22;7950;42.744;23.174;2023-06-19T15:25:04;26.10;79.40
15700;DHT22;7950;42.744;23.174;2023-06-19T15:27:33;26.00;80.20
15700;DHT22;7950;42.744;23.174;2023-06-19T15:30:03;26.00;80.00
15700;DHT22;7950;42.744;23.174;2023-06-19T15:32:32;25.90;78.80
15700;DHT22;7950;42.744;23.174;2023-06-19T15:35:02;25.90;80.50
15700;DHT22;7950;42.744;23.174;2023-06-19T15:37:31;25.80;81.60
15700;DHT22;7950;42.744;23.174;2023-06-19T15:40:00;25.80;82.80
15700;DHT22;7950;42.744;23.174;2023-06-19T15:42:28;25.70;79.90
15700;DHT22;7950;42.744;23.174;2023-06-19T15:44:58;25.60;80.10
15700;DHT22;7950;42.744;23.174;2023-06-19T15:47:27;25.60;79.40